Time;durP1;ratioP1;P1;durP2;ratioP2;P2;SDS_P1;SDS_P2;PMS_P1;PMS_P2;Temp;Humidity;BMP_temperature;BMP_pressure;BME280_temperature;BME280_humidity;BME280_pressure;Samples;Min_cycle;Max_cycle;Signal;HPM_P1;HPM_P2
2022/06/04 04:01:15;;;;;;;20.50;18.80;;;17.80;99.90;;;;;;5727842;23;20488;-61
2022/06/04 04:03:42;;;;;;;21.13;19.43;;;17.80;99.90;;;;;;5016220;28;20471;-62
2022/06/04 04:06:13;;;;;;;22.93;20.70;;;17.80;99.90;;;;;;5015321;28;20489;-61
2022/06/04 04:08:40;;;;;;;22.50;20.63;;;17.80;99.90;;;;;;5014910;28;20461;-61
2022/06/04 04:11:11;;;;;;;22.53;20.63;;;17.70;99.90;;;;;;5015023;28;20480;-61
2022/06/04 04:13:37;;;;;;;23.13;21.40;;;17.60;99.90;;;;;;5014954;28;20438;-61
2022/06/04 04:16:05;;;;;;;20.40;18.70;;;17.60;99.90;;;;;;5015085;28;20452;-61
2022/06/04 04:18:34;;;;;;;20.30;18.40;;;17.60;99.90;;;;;;5014853;28;20944;-62
2022/06/04 04:21:05;;;;;;;20.20;18.40;;;17.60;99.90;;;;;;5016270;28;20484;-62
2022/06/04 04:23:32;;;;;;;19.27;17.77;;;17.70;99.90;;;;;;5015179;28;20472;-61
2022/06/04 04:25:59;;;;;;;20.80;19.17;;;17.60;99.90;;;;;;5015267;28;20460;-62
2022/06/04 04:28:25;;;;;;;20.60;18.90;;;17.60;99.90;;;;;;5014775;28;20477;-62
2022/06/04 04:30:52;;;;;;;19.00;17.47;;;17.60;99.90;;;;;;5014982;28;20472;-62
2022/06/04 04:33:19;;;;;;;19.17;17.57;;;17.70;99.90;;;;;;5014518;28;20860;-61
2022/06/04 04:35:48;;;;;;;16.50;15.20;;;17.70;99.90;;;;;;5014797;28;20460;-62
2022/06/04 04:38:15;;;;;;;15.17;13.73;;;17.80;99.90;;;;;;5014665;28;20456;-62
2022/06/04 04:40:43;;;;;;;15.70;14.50;;;17.80;99.90;;;;;;5014569;28;20473;-62
2022/06/04 04:43:10;;;;;;;14.33;13.27;;;17.90;99.90;;;;;;5014209;28;20487;-62
2022/06/04 04:45:36;;;;;;;15.40;14.23;;;18.00;99.90;;;;;;5014326;28;20962;-62
2022/06/04 04:48:03;;;;;;;14.13;13.10;;;18.10;99.90;;;;;;5014461;28;20504;-62
2022/06/04 04:50:34;;;;;;;14.87;13.57;;;18.10;99.90;;;;;;5014386;28;20484;-62
2022/06/04 04:53:05;;;;;;;14.60;13.50;;;18.20;99.90;;;;;;5014509;28;20460;-61
2022/06/04 04:55:32;;;;;;;14.53;13.40;;;18.30;99.90;;;;;;5015082;28;20442;-61
2022/06/04 04:57:59;;;;;;;13.13;12.20;;;18.30;99.90;;;;;;5014451;28;20444;-62
2022/06/04 05:00:26;;;;;;;13.83;12.73;;;18.40;99.90;;;;;;5013899;28;20940;-62
2022/06/04 05:02:53;;;;;;;14.17;13.07;;;18.50;99.90;;;;;;5014427;28;20840;-61
2022/06/04 05:05:20;;;;;;;14.00;12.90;;;18.60;99.90;;;;;;5014275;28;20460;-62
2022/06/04 05:07:46;;;;;;;14.13;12.93;;;18.80;99.90;;;;;;5014334;28;20481;-62
2022/06/04 05:10:15;;;;;;;12.50;11.70;;;18.90;99.90;;;;;;5014190;28;20456;-62
2022/06/04 05:12:42;;;;;;;13.50;12.40;;;19.10;99.90;;;;;;5013923;28;20794;-61
2022/06/04 05:15:10;;;;;;;12.17;11.27;;;19.20;99.90;;;;;;5014141;28;20457;-60
2022/06/04 05:17:37;;;;;;;12.53;11.63;;;19.30;99.90;;;;;;5014432;28;20819;-61
2022/06/04 05:20:04;;;;;;;12.50;11.67;;;19.50;99.90;;;;;;5014071;28;20453;-61
2022/06/04 05:22:31;;;;;;;12.57;11.53;;;19.50;99.90;;;;;;5013995;28;20476;-61
2022/06/04 05:24:58;;;;;;;12.90;11.80;;;19.50;99.90;;;;;;5014188;28;20506;-61
2022/06/04 05:27:26;;;;;;;11.80;11.00;;;19.60;99.90;;;;;;5019974;28;20846;-61
2022/06/04 05:29:52;;;;;;;13.10;12.00;;;19.50;99.90;;;;;;5020459;28;20460;-61
2022/06/04 05:32:19;;;;;;;12.97;11.77;;;19.60;99.90;;;;;;5020313;28;20479;-61
2022/06/04 05:34:46;;;;;;;12.90;11.87;;;19.60;99.90;;;;;;5020349;28;20811;-62
2022/06/04 05:37:12;;;;;;;12.63;11.70;;;19.70;99.90;;;;;;5020472;28;20510;-62
2022/06/04 05:39:39;;;;;;;12.57;11.53;;;19.80;99.90;;;;;;5020096;28;20940;-63
2022/06/04 05:42:07;;;;;;;12.57;11.67;;;19.80;99.90;;;;;;5020241;28;20483;-62
2022/06/04 05:44:35;;;;;;;13.57;12.23;;;19.90;99.90;;;;;;5020344;28;20460;-62
2022/06/04 05:47:04;;;;;;;12.60;11.63;;;19.90;99.90;;;;;;5020011;28;20821;-62
2022/06/04 05:49:32;;;;;;;10.60;9.80;;;19.90;99.90;;;;;;5020115;28;20452;-62
2022/06/04 05:51:58;;;;;;;11.83;11.03;;;19.90;99.90;;;;;;5020133;28;20542;-62
2022/06/04 05:54:25;;;;;;;11.90;10.90;;;20.00;99.90;;;;;;5020131;28;20453;-62
2022/06/04 05:56:52;;;;;;;12.60;11.37;;;20.10;99.90;;;;;;5020441;28;20452;-62
2022/06/04 05:59:21;;;;;;;12.27;11.37;;;20.00;99.90;;;;;;5020113;28;20444;-63
2022/06/04 06:01:51;;;;;;;11.27;10.40;;;20.00;99.90;;;;;;5019976;28;20480;-63
2022/06/04 06:04:20;;;;;;;12.90;11.90;;;20.10;99.90;;;;;;5020859;28;20480;-63
2022/06/04 06:06:49;;;;;;;11.20;10.50;;;20.20;99.90;;;;;;5020336;28;20432;-62
2022/06/04 06:09:18;;;;;;;11.60;10.80;;;20.20;99.90;;;;;;5019866;28;21011;-62
2022/06/04 06:11:46;;;;;;;13.10;12.00;;;20.20;99.90;;;;;;5020247;28;20479;-62
2022/06/04 06:14:13;;;;;;;13.40;12.40;;;20.20;99.90;;;;;;5020345;28;20452;-62
2022/06/04 06:16:43;;;;;;;12.37;11.50;;;20.10;99.90;;;;;;5020859;28;20502;-62
2022/06/04 06:19:11;;;;;;;13.73;12.73;;;20.10;99.90;;;;;;5021627;28;20445;-63
2022/06/04 06:21:38;;;;;;;15.17;13.90;;;19.90;99.90;;;;;;5020779;28;20476;-64
2022/06/04 06:24:08;;;;;;;15.50;14.20;;;19.80;99.90;;;;;;5020233;28;20823;-63
2022/06/04 06:26:41;;;;;;;16.37;15.10;;;19.60;99.90;;;;;;5020140;28;20485;-63
2022/06/04 06:29:08;;;;;;;17.03;15.63;;;19.50;99.90;;;;;;5020181;28;20467;-63
2022/06/04 06:31:36;;;;;;;16.60;15.27;;;19.30;99.90;;;;;;5020392;28;20531;-63
2022/06/04 06:34:03;;;;;;;16.63;15.17;;;19.20;99.90;;;;;;5020358;28;20452;-63
2022/06/04 06:36:31;;;;;;;18.30;16.27;;;19.10;99.90;;;;;;5020694;28;20528;-62
2022/06/04 06:38:58;;;;;;;21.03;17.47;;;18.90;99.90;;;;;;5015566;28;20944;-62
2022/06/04 06:41:26;;;;;;;19.37;17.60;;;18.80;99.90;;;;;;5017112;28;20495;-64
2022/06/04 06:43:53;;;;;;;21.57;19.27;;;18.70;99.90;;;;;;5017117;28;20461;-64
2022/06/04 06:46:22;;;;;;;30.50;22.63;;;18.70;99.90;;;;;;5020485;28;20453;-64
2022/06/04 06:48:51;;;;;;;20.80;18.93;;;18.60;99.90;;;;;;5027314;28;20480;-63
2022/06/04 06:51:23;;;;;;;25.53;19.60;;;18.70;99.90;;;;;;5028138;28;20473;-65
2022/06/04 06:53:54;;;;;;;20.50;18.50;;;18.60;99.90;;;;;;5022514;28;20443;-63
2022/06/04 06:56:24;;;;;;;21.57;19.37;;;18.70;99.90;;;;;;5017028;28;20441;-62
2022/06/04 06:58:51;;;;;;;19.37;17.87;;;18.70;99.90;;;;;;5017097;28;20473;-62
2022/06/04 07:01:18;;;;;;;19.37;17.43;;;18.80;99.90;;;;;;5016198;28;20983;-62
2022/06/04 07:03:45;;;;;;;19.10;17.57;;;18.90;99.90;;;;;;5016595;28;20597;-64
2022/06/04 07:06:13;;;;;;;19.37;17.67;;;19.00;99.90;;;;;;5016163;28;20459;-62
2022/06/04 07:08:42;;;;;;;20.03;18.37;;;19.00;99.90;;;;;;5016565;28;20484;-62
2022/06/04 07:11:11;;;;;;;22.00;19.90;;;19.10;99.90;;;;;;5017345;28;20551;-63
2022/06/04 07:13:38;;;;;;;23.13;21.03;;;19.10;99.90;;;;;;5016324;28;20512;-63
2022/06/04 07:16:05;;;;;;;21.53;19.47;;;19.10;99.90;;;;;;5016050;28;20457;-63
2022/06/04 07:18:32;;;;;;;21.50;19.60;;;19.00;99.90;;;;;;5015848;28;20484;-63
2022/06/04 07:20:59;;;;;;;22.70;20.83;;;19.00;99.90;;;;;;5016573;28;20477;-63
2022/06/04 07:23:26;;;;;;;25.03;22.93;;;19.00;99.90;;;;;;5015994;28;20820;-63
2022/06/04 07:25:53;;;;;;;24.33;22.23;;;19.00;99.90;;;;;;5016132;28;20456;-66
2022/06/04 07:28:21;;;;;;;24.63;22.70;;;19.10;99.90;;;;;;5015918;28;20479;-63
2022/06/04 07:30:48;;;;;;;25.73;23.77;;;19.10;99.90;;;;;;5016068;28;20476;-64
2022/06/04 07:33:14;;;;;;;25.17;22.97;;;19.20;99.90;;;;;;5015852;28;20554;-63
2022/06/04 07:35:47;;;;;;;23.27;21.43;;;19.40;99.90;;;;;;5015715;28;20448;-63
2022/06/04 07:38:13;;;;;;;20.13;18.30;;;19.70;99.90;;;;;;5015861;28;20471;-63
2022/06/04 07:40:40;;;;;;;20.27;18.73;;;20.20;99.90;;;;;;5015643;28;20475;-63
2022/06/04 07:43:07;;;;;;;20.17;18.63;;;20.40;99.90;;;;;;5015706;28;20457;-63
2022/06/04 07:45:35;;;;;;;22.23;20.33;;;20.70;99.90;;;;;;5015608;28;20819;-63
2022/06/04 07:48:02;;;;;;;20.30;18.80;;;20.80;99.90;;;;;;5015539;28;20477;-63
2022/06/04 07:50:29;;;;;;;20.13;18.50;;;20.80;99.90;;;;;;5015099;28;20457;-63
2022/06/04 07:52:57;;;;;;;20.30;18.70;;;20.90;99.90;;;;;;5015529;28;20460;-63
2022/06/04 07:55:24;;;;;;;21.03;19.40;;;21.00;99.90;;;;;;5015211;28;20455;-63
2022/06/04 07:57:51;;;;;;;19.40;17.90;;;21.20;99.90;;;;;;5015314;28;20452;-63
2022/06/04 08:00:19;;;;;;;18.43;17.13;;;21.40;99.90;;;;;;5015123;28;20820;-63
2022/06/04 08:02:48;;;;;;;19.40;18.10;;;21.50;99.90;;;;;;5015254;28;20476;-63
2022/06/04 08:05:15;;;;;;;19.57;18.10;;;21.60;99.90;;;;;;5015158;28;20959;-63
2022/06/04 08:07:42;;;;;;;18.63;17.27;;;21.80;99.90;;;;;;5014551;28;20456;-63
2022/06/04 08:10:12;;;;;;;19.40;18.00;;;22.00;99.90;;;;;;5014811;28;20494;-63
2022/06/04 08:12:42;;;;;;;18.80;17.37;;;22.00;99.90;;;;;;5014782;28;20452;-63
2022/06/04 08:15:09;;;;;;;17.60;15.40;;;22.10;99.90;;;;;;5014809;28;20437;-63
2022/06/04 08:17:36;;;;;;;13.97;12.73;;;22.60;99.90;;;;;;5014877;28;20488;-63
2022/06/04 08:20:05;;;;;;;16.77;15.47;;;23.30;99.90;;;;;;5014678;28;20456;-63
2022/06/04 08:22:32;;;;;;;15.17;14.00;;;23.70;99.90;;;;;;5014705;28;20531;-63
2022/06/04 08:24:58;;;;;;;15.40;14.30;;;24.40;99.90;;;;;;5015185;28;20461;-65
2022/06/04 08:27:25;;;;;;;14.63;13.53;;;24.80;99.90;;;;;;5014443;28;20449;-65
2022/06/04 08:29:52;;;;;;;16.20;15.00;;;24.90;99.90;;;;;;5014640;28;20484;-65
2022/06/04 08:32:19;;;;;;;15.87;14.77;;;25.00;99.90;;;;;;5014836;28;20486;-65
2022/06/04 08:34:45;;;;;;;14.97;13.80;;;24.90;99.90;;;;;;5014620;28;20516;-64
2022/06/04 08:37:13;;;;;;;15.30;14.20;;;25.00;99.90;;;;;;5014502;28;20465;-64
2022/06/04 08:39:40;;;;;;;15.43;14.33;;;25.00;99.90;;;;;;5014432;28;20460;-64
2022/06/04 08:42:29;;;;;;;14.10;13.20;;;25.20;99.90;;;;;;5014075;28;21010;-64
2022/06/04 08:45:01;;;;;;;14.20;13.10;;;25.40;99.90;;;;;;5014069;28;20936;-64
2022/06/04 08:47:33;;;;;;;15.10;13.57;;;26.00;99.90;;;;;;5013893;28;20847;-64
2022/06/04 08:50:03;;;;;;;14.60;13.60;;;26.40;99.90;;;;;;5014288;28;20468;-66
2022/06/04 08:52:34;;;;;;;14.53;13.53;;;26.70;99.90;;;;;;5015185;28;20476;-66
2022/06/04 08:58:03;;;;;;;15.07;13.83;;;27.20;99.90;;;;;;5014303;28;20497;-66
2022/06/04 09:00:35;;;;;;;12.50;11.63;;;27.10;99.90;;;;;;5013444;28;20436;-65
2022/06/04 09:03:10;;;;;;;11.60;10.83;;;27.10;99.90;;;;;;5014247;28;20441;-65
2022/06/04 09:06:15;;;;;;;12.40;11.50;;;27.30;99.90;;;;;;5014389;28;20462;-65
2022/06/04 09:08:51;;;;;;;12.57;11.70;;;27.20;99.90;;;;;;4972791;28;20865;-66
2022/06/04 09:11:23;;;;;;;13.00;12.20;;;27.20;99.90;;;;;;5006478;28;20819;-65
2022/06/04 09:14:16;;;;;;;13.87;12.87;;;27.30;99.90;;;;;;5014153;28;20539;-65
2022/06/04 09:16:49;;;;;;;14.43;13.43;;;26.80;99.90;;;;;;5014043;28;20437;-65
2022/06/04 09:19:19;;;;;;;15.97;14.80;;;26.50;99.90;;;;;;5013975;28;20487;-65
2022/06/04 09:21:47;;;;;;;16.60;15.40;;;26.20;99.90;;;;;;5014348;28;20476;-64
2022/06/04 09:24:15;;;;;;;15.50;14.30;;;26.00;99.90;;;;;;5014246;28;20456;-64
2022/06/04 09:26:47;;;;;;;15.50;14.23;;;25.80;99.90;;;;;;5013955;28;20479;-64
2022/06/04 09:29:32;;;;;;;15.63;14.43;;;25.70;99.90;;;;;;5014019;28;20821;-64
2022/06/04 09:32:08;;;;;;;14.33;13.33;;;25.50;99.90;;;;;;5013787;28;20475;-64
2022/06/04 09:34:38;;;;;;;15.60;14.50;;;25.40;99.90;;;;;;5013711;28;20851;-64
2022/06/04 09:37:07;;;;;;;14.93;13.93;;;25.30;99.90;;;;;;5013748;28;20464;-64
2022/06/04 09:39:37;;;;;;;16.43;15.30;;;25.30;99.90;;;;;;5013817;28;20459;-64
2022/06/04 09:42:06;;;;;;;17.37;16.20;;;25.20;99.90;;;;;;5014466;28;20477;-64
2022/06/04 09:44:38;;;;;;;17.77;16.30;;;25.20;99.90;;;;;;5013870;28;20468;-64
2022/06/04 09:47:16;;;;;;;17.77;16.30;;;25.50;99.90;;;;;;5013744;28;20444;-64
2022/06/04 09:49:52;;;;;;;18.40;16.87;;;25.50;99.90;;;;;;5014077;28;20464;-64
2022/06/04 09:52:23;;;;;;;19.60;18.00;;;25.50;99.90;;;;;;5014252;28;20835;-64
2022/06/04 09:54:57;;;;;;;19.17;17.83;;;25.40;99.90;;;;;;5013943;28;20453;-64
2022/06/04 09:57:35;;;;;;;19.50;18.03;;;25.00;99.90;;;;;;5013919;28;20441;-64
2022/06/04 10:00:05;;;;;;;22.50;20.70;;;24.70;99.90;;;;;;5013891;28;20456;-65
2022/06/04 10:02:33;;;;;;;24.20;22.50;;;24.70;99.90;;;;;;5013482;28;20556;-64
2022/06/04 10:05:03;;;;;;;21.93;20.40;;;24.50;99.90;;;;;;5013731;28;20915;-64
2022/06/04 10:07:33;;;;;;;24.33;22.53;;;24.30;99.90;;;;;;5013333;28;20998;-64
2022/06/04 10:10:10;;;;;;;23.67;21.97;;;24.20;99.90;;;;;;5013419;28;20814;-64
2022/06/04 10:15:31;;;;;;;27.00;25.00;;;23.80;99.90;;;;;;5017250;28;20931;-65
2022/06/04 10:18:02;;;;;;;25.80;23.90;;;23.60;99.90;;;;;;5017508;28;20437;-64
2022/06/04 10:20:29;;;;;;;27.43;25.23;;;23.40;99.90;;;;;;5017499;28;20433;-64
2022/06/04 10:22:56;;;;;;;28.40;26.10;;;23.30;99.90;;;;;;5017012;28;20940;-64
2022/06/04 10:25:32;;;;;;;28.20;26.10;;;23.20;99.90;;;;;;5017323;28;20483;-64
2022/06/04 10:28:15;;;;;;;29.20;27.00;;;23.00;99.90;;;;;;5017251;28;20444;-64
2022/06/04 10:30:54;;;;;;;29.90;27.50;;;23.00;99.90;;;;;;5017202;28;20516;-64
2022/06/04 10:33:29;;;;;;;26.93;24.87;;;22.90;99.90;;;;;;5017175;28;20441;-64
2022/06/04 10:36:03;;;;;;;28.47;26.27;;;22.90;99.90;;;;;;5017291;28;20441;-64
2022/06/04 10:38:43;;;;;;;29.80;27.50;;;22.80;99.90;;;;;;5016861;28;20441;-64
2022/06/04 10:41:16;;;;;;;30.60;28.10;;;22.80;99.90;;;;;;5016706;28;20480;-64
2022/06/04 10:43:56;;;;;;;28.93;26.73;;;22.60;99.90;;;;;;5016962;28;20437;-64
2022/06/04 10:46:32;;;;;;;27.40;25.40;;;22.50;99.90;;;;;;5016888;28;20448;-64
2022/06/04 10:49:14;;;;;;;23.80;22.03;;;22.60;99.90;;;;;;5016938;28;20468;-65
2022/06/04 10:51:51;;;;;;;24.97;22.90;;;22.70;99.90;;;;;;5016588;28;21059;-64
2022/06/04 10:54:24;;;;;;;27.43;24.73;;;22.80;99.90;;;;;;5017450;28;20459;-64
2022/06/04 10:56:58;;;;;;;25.60;23.57;;;22.80;99.90;;;;;;5016842;28;20441;-64
2022/06/04 10:59:32;;;;;;;26.10;23.47;;;23.00;99.90;;;;;;5016624;28;20438;-64
2022/06/04 11:02:05;;;;;;;25.43;23.53;;;23.10;99.90;;;;;;5016463;28;20485;-65
2022/06/04 11:04:40;;;;;;;25.37;23.00;;;23.20;99.90;;;;;;5017331;28;20445;-64
2022/06/04 11:07:26;;;;;;;24.87;22.97;;;23.40;99.90;;;;;;5016935;28;20441;-64
2022/06/04 11:09:54;;;;;;;22.77;21.00;;;23.30;99.90;;;;;;5016607;28;20465;-64
2022/06/04 11:12:31;;;;;;;25.27;23.10;;;23.40;99.90;;;;;;5016179;28;20473;-64
2022/06/04 11:15:04;;;;;;;20.93;19.23;;;23.30;99.90;;;;;;5016385;28;20440;-65
2022/06/04 11:17:41;;;;;;;22.97;21.27;;;23.30;99.90;;;;;;5016268;28;20448;-65
2022/06/04 11:20:14;;;;;;;21.20;19.60;;;23.30;99.90;;;;;;5016436;28;20441;-65
2022/06/04 11:22:45;;;;;;;20.07;18.67;;;23.40;99.90;;;;;;5016115;28;20437;-65
2022/06/04 11:25:25;;;;;;;21.20;19.70;;;23.40;99.90;;;;;;5015284;28;20460;-65
2022/06/04 11:27:58;;;;;;;21.70;19.93;;;23.60;99.90;;;;;;5016004;28;20441;-65
2022/06/04 11:30:32;;;;;;;19.33;18.00;;;23.80;99.90;;;;;;5015948;28;20520;-68
2022/06/04 11:33:15;;;;;;;20.73;19.20;;;23.90;99.90;;;;;;5015884;28;20483;-65
2022/06/04 11:35:47;;;;;;;20.10;18.50;;;23.90;99.90;;;;;;5015895;28;20441;-65
2022/06/04 11:38:38;;;;;;;19.53;18.23;;;23.80;99.90;;;;;;5015549;28;20900;-65
2022/06/04 11:41:18;;;;;;;17.63;16.23;;;23.60;99.90;;;;;;5015375;28;20997;-66
2022/06/04 11:44:18;;;;;;;17.93;16.63;;;23.70;99.90;;;;;;5015708;28;20437;-65
2022/06/04 11:46:59;;;;;;;16.90;15.50;;;23.80;99.90;;;;;;5016196;28;20433;-65
2022/06/04 11:49:34;;;;;;;16.63;15.53;;;23.90;99.90;;;;;;5015623;28;20468;-65
2022/06/04 11:52:11;;;;;;;17.13;15.93;;;23.90;99.90;;;;;;5016709;28;20476;-66
2022/06/04 11:54:49;;;;;;;16.20;15.00;;;24.10;99.90;;;;;;5026358;28;20480;-65
2022/06/04 11:57:24;;;;;;;16.97;15.77;;;24.20;99.90;;;;;;5024858;28;20437;-64
2022/06/04 12:00:07;;;;;;;17.13;15.83;;;24.40;99.90;;;;;;5015493;28;20508;-65
2022/06/04 12:02:43;;;;;;;15.10;13.97;;;24.50;99.90;;;;;;5014898;28;20499;-65
2022/06/04 12:05:23;;;;;;;16.80;15.27;;;24.70;99.90;;;;;;5015271;28;20491;-65
2022/06/04 12:07:54;;;;;;;18.40;17.10;;;25.00;99.90;;;;;;5015053;28;20437;-64
2022/06/04 12:10:26;;;;;;;17.07;15.77;;;25.00;99.90;;;;;;5015038;28;20469;-65
2022/06/04 12:13:02;;;;;;;15.50;14.30;;;25.20;99.90;;;;;;5015072;28;20437;-65
2022/06/04 12:15:39;;;;;;;15.80;14.60;;;25.50;99.90;;;;;;5015961;28;20475;-65
2022/06/04 12:18:23;;;;;;;13.57;12.67;;;25.90;99.90;;;;;;5014728;28;20904;-66
2022/06/04 12:26:29;;;;;;;16.90;15.30;;;26.80;99.90;;;;;;5015238;28;20471;-65
2022/06/04 12:28:57;;;;;;;14.27;13.27;;;27.10;99.90;;;;;;5014873;28;20510;-64
2022/06/04 12:31:34;;;;;;;14.80;13.80;;;27.30;99.90;;;;;;5014642;28;20500;-64
2022/06/04 12:34:02;;;;;;;15.43;14.23;;;27.60;99.90;;;;;;5014700;28;20468;-64
2022/06/04 12:36:32;;;;;;;13.77;12.73;;;27.60;99.90;;;;;;5013415;28;20535;-64
2022/06/04 12:39:04;;;;;;;17.43;16.17;;;27.70;99.90;;;;;;5015224;28;20446;-65
2022/06/04 12:41:45;;;;;;;15.53;14.43;;;27.90;99.90;;;;;;5014549;28;20835;-65
2022/06/04 12:44:24;;;;;;;13.80;12.90;;;27.80;99.90;;;;;;5015043;28;20441;-65
2022/06/04 12:46:54;;;;;;;15.57;14.57;;;27.70;99.90;;;;;;5014843;28;20459;-65
2022/06/04 12:49:34;;;;;;;16.07;14.97;;;27.70;99.90;;;;;;5014479;28;20441;-65
2022/06/04 12:52:08;;;;;;;14.10;13.20;;;27.60;99.90;;;;;;5014333;28;20834;-65
2022/06/04 12:54:50;;;;;;;15.20;14.10;;;27.60;99.90;;;;;;5014062;28;20437;-65
2022/06/04 12:57:23;;;;;;;12.80;12.00;;;27.90;99.90;;;;;;5014063;28;21002;-65
2022/06/04 12:59:52;;;;;;;9.20;8.60;;;28.10;99.90;;;;;;5014292;28;20463;-65
2022/06/04 13:02:33;;;;;;;9.50;8.70;;;28.00;99.90;;;;;;5013956;28;20485;-65
2022/06/04 13:05:12;;;;;;;11.53;10.83;;;27.90;99.90;;;;;;5013912;28;20918;-65
2022/06/04 13:07:56;;;;;;;8.67;8.17;;;27.80;99.90;;;;;;5014862;28;20459;-64
2022/06/04 13:10:34;;;;;;;8.57;7.77;;;28.00;99.90;;;;;;5014070;28;20465;-65
2022/06/04 13:13:12;;;;;;;8.27;7.77;;;27.90;99.90;;;;;;5014221;28;20878;-65
2022/06/04 13:15:52;;;;;;;8.57;7.90;;;27.70;99.90;;;;;;5014100;28;20441;-65
2022/06/04 13:18:25;;;;;;;6.70;6.10;;;28.00;99.90;;;;;;5013962;28;20912;-65
2022/06/04 13:20:54;;;;;;;7.60;6.07;;;28.30;99.90;;;;;;5014286;28;20836;-65
2022/06/04 13:23:30;;;;;;;11.97;7.77;;;28.50;99.90;;;;;;5014224;28;20485;-66
2022/06/04 13:26:23;;;;;;;33.97;10.47;;;28.40;99.90;;;;;;5014002;28;20441;-65
2022/06/04 13:28:50;;;;;;;9.50;8.80;;;28.40;99.90;;;;;;5013843;28;20441;-65
2022/06/04 13:31:20;;;;;;;7.73;7.23;;;28.20;99.90;;;;;;5013496;28;20992;-65
2022/06/04 13:33:49;;;;;;;9.53;8.87;;;28.30;99.90;;;;;;5013515;28;20445;-65
2022/06/04 13:36:19;;;;;;;9.93;9.03;;;28.10;99.90;;;;;;5013898;28;20457;-65
2022/06/04 13:38:47;;;;;;;10.77;9.83;;;28.30;99.90;;;;;;5013787;28;20441;-65
2022/06/04 13:42:00;;;;;;;8.57;7.97;;;28.60;99.90;;;;;;5013483;28;20979;-65
2022/06/04 13:44:08;;;;;;;9.40;8.90;;;28.70;99.90;;;;;;5013289;28;20830;-66
2022/06/04 13:46:35;;;;;;;10.07;9.20;;;28.60;99.90;;;;;;5014004;28;20837;-66
2022/06/04 13:49:11;;;;;;;9.83;8.97;;;28.50;99.90;;;;;;5018389;28;20484;-65
2022/06/04 13:51:42;;;;;;;7.53;7.13;;;28.60;99.90;;;;;;5018196;28;20967;-66
2022/06/04 13:54:21;;;;;;;8.73;8.13;;;28.50;99.90;;;;;;5017656;28;20433;-66
2022/06/04 13:56:47;;;;;;;12.37;11.53;;;28.60;99.90;;;;;;5017295;28;20920;-65
2022/06/04 13:59:24;;;;;;;9.70;9.00;;;28.60;99.90;;;;;;5017517;28;20456;-65
2022/06/04 14:01:56;;;;;;;9.00;8.40;;;28.60;99.90;;;;;;5016731;28;20987;-65
2022/06/04 14:07:11;;;;;;;8.97;8.43;;;28.30;99.90;;;;;;5017126;28;20436;-65
2022/06/04 14:09:38;;;;;;;8.20;7.60;;;28.50;99.90;;;;;;5017269;28;20936;-66
2022/06/04 14:12:15;;;;;;;6.67;6.27;;;28.40;99.90;;;;;;5017375;28;20555;-66
2022/06/04 14:14:58;;;;;;;7.43;6.83;;;28.30;99.90;;;;;;5017436;28;20519;-66
2022/06/04 14:17:41;;;;;;;8.57;7.87;;;28.10;99.90;;;;;;5017448;28;20441;-64
2022/06/04 14:20:22;;;;;;;7.83;7.23;;;28.20;99.90;;;;;;5017552;28;20444;-64
2022/06/04 14:23:01;;;;;;;7.10;6.40;;;28.30;99.90;;;;;;5017291;28;20444;-64
2022/06/04 14:25:46;;;;;;;6.50;6.10;;;28.40;99.90;;;;;;5016940;28;20440;-64
2022/06/04 14:28:23;;;;;;;7.90;7.20;;;28.50;99.90;;;;;;5017177;28;20444;-64
2022/06/04 14:30:56;;;;;;;10.30;9.43;;;28.30;99.90;;;;;;5017465;28;20480;-64
2022/06/04 14:33:25;;;;;;;10.33;9.63;;;28.40;99.90;;;;;;5016625;28;20447;-64
2022/06/04 14:36:02;;;;;;;9.70;8.87;;;28.60;99.90;;;;;;5016846;28;20494;-64
2022/06/04 14:38:31;;;;;;;11.40;10.60;;;28.70;99.90;;;;;;5016787;28;20491;-64
2022/06/04 14:41:05;;;;;;;12.23;11.43;;;28.60;99.90;;;;;;5016615;28;20523;-64
2022/06/04 14:43:56;;;;;;;10.70;9.90;;;28.10;99.90;;;;;;5016642;28;20441;-64
2022/06/04 14:46:38;;;;;;;13.07;12.17;;;27.90;99.90;;;;;;5017225;28;20440;-64
2022/06/04 14:49:27;;;;;;;13.50;12.60;;;27.70;99.90;;;;;;5016640;28;20786;-64
2022/06/04 14:52:30;;;;;;;11.50;10.80;;;27.80;99.90;;;;;;5016458;28;20490;-64
2022/06/04 14:55:06;;;;;;;12.10;11.30;;;28.10;99.90;;;;;;5016525;28;20448;-64
2022/06/04 14:57:47;;;;;;;9.73;9.10;;;28.30;99.90;;;;;;5016314;28;20437;-64
2022/06/04 15:00:25;;;;;;;10.77;10.00;;;28.40;99.90;;;;;;5015118;28;20444;-64
2022/06/04 15:03:12;;;;;;;10.73;9.73;;;28.50;99.90;;;;;;5016302;28;20444;-64
2022/06/04 15:05:52;;;;;;;9.13;8.53;;;28.50;99.90;;;;;;5016397;28;20438;-64
2022/06/04 15:08:40;;;;;;;9.80;8.93;;;28.60;99.90;;;;;;5015952;28;20805;-64
2022/06/04 15:11:49;;;;;;;10.80;10.10;;;28.60;99.90;;;;;;5016674;28;20485;-64
2022/06/04 15:14:28;;;;;;;9.40;8.90;;;28.50;99.90;;;;;;4974949;28;20969;-64
2022/06/04 15:17:07;;;;;;;9.20;8.70;;;28.40;99.90;;;;;;5011173;28;20456;-64
2022/06/04 15:19:49;;;;;;;9.80;9.17;;;28.40;99.90;;;;;;5016434;28;20796;-64
2022/06/04 15:22:31;;;;;;;9.83;9.13;;;28.30;99.90;;;;;;5016425;28;20996;-64
2022/06/04 15:25:11;;;;;;;9.63;8.83;;;28.10;99.90;;;;;;5016615;28;20437;-64
2022/06/04 15:27:46;;;;;;;9.57;8.87;;;28.10;99.90;;;;;;5016237;28;20444;-65
2022/06/04 15:38:40;;;;;;;9.60;8.97;;;27.50;99.90;;;;;;5025448;28;20476;-65
2022/06/04 15:41:29;;;;;;;10.03;9.23;;;27.60;99.90;;;;;;5024557;28;20488;-66
2022/06/04 15:44:04;;;;;;;8.60;8.10;;;27.70;99.90;;;;;;5017502;28;20468;-64
2022/06/04 15:46:40;;;;;;;9.10;8.50;;;27.80;99.90;;;;;;5015964;28;20455;-64
2022/06/04 15:49:15;;;;;;;8.30;7.63;;;27.80;99.90;;;;;;5015870;28;20895;-64
2022/06/04 15:57:35;;;;;;;7.53;6.60;;;27.40;99.90;;;;;;5003934;28;20453;-64
2022/06/04 16:00:11;;;;;;;6.40;5.87;;;27.50;99.90;;;;;;5015656;28;20862;-64
2022/06/04 16:02:39;;;;;;;6.57;6.00;;;27.50;99.90;;;;;;5014939;28;20983;-64
2022/06/04 16:05:08;;;;;;;6.73;6.33;;;27.50;99.90;;;;;;5015291;28;20936;-64
2022/06/04 16:08:02;;;;;;;7.10;6.50;;;27.60;99.90;;;;;;5015871;28;20453;-64
2022/06/04 16:10:57;;;;;;;7.10;6.60;;;27.60;99.90;;;;;;5014814;28;20519;-64
2022/06/04 16:13:44;;;;;;;8.10;7.50;;;27.50;99.90;;;;;;5015329;28;20460;-64
2022/06/04 16:16:32;;;;;;;13.13;11.97;;;27.50;99.90;;;;;;5015154;28;20464;-64
2022/06/04 16:19:18;;;;;;;7.63;7.10;;;27.60;99.90;;;;;;5015261;28;20972;-64
2022/06/04 16:21:51;;;;;;;6.57;6.10;;;27.50;99.90;;;;;;5015115;28;20576;-64
2022/06/04 16:24:28;;;;;;;7.20;6.60;;;27.60;99.90;;;;;;5015028;28;20448;-64
2022/06/04 16:26:56;;;;;;;7.67;6.90;;;27.60;99.90;;;;;;5015122;28;20441;-64
2022/06/04 16:29:28;;;;;;;6.50;6.03;;;27.50;99.90;;;;;;5014649;28;20511;-64
2022/06/04 16:32:13;;;;;;;7.13;6.63;;;27.40;99.90;;;;;;5014652;28;20484;-66
2022/06/04 16:35:03;;;;;;;10.17;8.90;;;27.40;99.90;;;;;;5014696;28;20446;-64
2022/06/04 16:37:34;;;;;;;5.70;5.20;;;27.40;99.90;;;;;;5014690;28;20490;-64
2022/06/04 16:40:02;;;;;;;5.70;5.30;;;27.40;99.90;;;;;;5015019;28;20429;-64
2022/06/04 16:42:42;;;;;;;6.47;6.07;;;27.40;99.90;;;;;;5014682;28;20976;-64
2022/06/04 16:45:19;;;;;;;6.70;6.30;;;27.40;99.90;;;;;;5015214;28;20443;-64
2022/06/04 16:47:53;;;;;;;11.50;10.40;;;27.30;99.90;;;;;;5015153;28;20502;-64
2022/06/04 16:50:20;;;;;;;8.23;7.63;;;27.30;99.90;;;;;;5014599;28;20520;-64
2022/06/04 16:52:49;;;;;;;6.30;5.90;;;27.20;99.90;;;;;;5015065;28;20804;-64
2022/06/04 16:55:19;;;;;;;6.73;6.20;;;27.10;99.90;;;;;;5015052;28;20819;-64
2022/06/04 16:57:47;;;;;;;5.67;5.13;;;27.10;99.90;;;;;;5014988;28;20453;-64
2022/06/04 17:00:18;;;;;;;6.10;5.80;;;27.00;99.90;;;;;;5014406;28;20453;-64
2022/06/04 17:03:09;;;;;;;6.17;5.67;;;27.00;99.90;;;;;;5014369;28;20502;-64
2022/06/04 17:06:04;;;;;;;5.63;5.27;;;26.80;99.90;;;;;;5014307;28;20448;-64
2022/06/04 17:09:01;;;;;;;5.23;4.93;;;26.80;99.90;;;;;;5014365;28;20448;-64
2022/06/04 17:11:47;;;;;;;4.97;4.67;;;26.70;99.90;;;;;;5014358;28;20485;-64
2022/06/04 17:14:25;;;;;;;5.67;5.20;;;26.70;99.90;;;;;;5014284;28;20472;-64
2022/06/04 17:17:05;;;;;;;5.47;5.17;;;26.60;99.90;;;;;;5014304;28;20503;-64
2022/06/04 17:19:45;;;;;;;5.93;5.43;;;26.60;99.90;;;;;;5014433;28;20444;-64
2022/06/04 17:22:35;;;;;;;4.63;4.43;;;26.50;99.90;;;;;;5013539;28;20483;-64
2022/06/04 17:25:23;;;;;;;5.97;5.47;;;26.40;99.90;;;;;;5014495;28;20495;-64
2022/06/04 17:27:59;;;;;;;4.93;4.43;;;26.40;99.90;;;;;;5014054;28;20851;-64
2022/06/04 17:30:35;;;;;;;5.03;4.63;;;26.30;99.90;;;;;;5014268;28;20539;-64
2022/06/04 17:33:09;;;;;;;5.47;5.07;;;26.30;99.90;;;;;;5014075;28;20451;-64